createdAt,value
2019-05-06T00:07:41.330Z,16.3
2019-05-06T00:24:54.991Z,16.4
2019-05-06T00:34:54.692Z,16.5
2019-05-06T00:47:04.178Z,16.4
2019-05-06T00:56:00.599Z,16.4
2019-05-06T01:05:59.824Z,16.3
2019-05-06T01:15:59.045Z,16.1
2019-05-06T01:25:58.257Z,15.9
2019-05-06T01:35:57.475Z,15.8
2019-05-06T01:45:56.696Z,15.6
2019-05-06T01:55:39.519Z,15.4
2019-05-06T02:05:18.906Z,15.4
2019-05-06T02:14:56.667Z,15.4
2019-05-06T02:24:55.891Z,15.4
2019-05-06T02:34:55.161Z,15.4
2019-05-06T02:44:54.503Z,15.3
2019-05-06T02:54:53.876Z,15.2
2019-05-06T03:04:53.065Z,15.1
2019-05-06T03:14:53.184Z,15.1
2019-05-06T03:24:54.059Z,15.1
2019-05-06T03:35:07.332Z,15.1
2019-05-06T03:47:38.644Z,15.3
2019-05-06T03:57:37.916Z,15.4
2019-05-06T04:07:37.134Z,15.6
2019-05-06T04:17:36.297Z,15.7
2019-05-06T04:27:35.515Z,15.4
2019-05-06T04:37:34.735Z,15.3
2019-05-06T04:47:34.035Z,15.4
2019-05-06T04:57:33.659Z,15.5
2019-05-06T05:07:33.359Z,15.6
2019-05-06T05:17:33.330Z,15.8
2019-05-06T05:27:32.949Z,15.8
2019-05-06T05:37:32.808Z,15.4
2019-05-06T05:47:32.981Z,15.1
2019-05-06T05:57:32.166Z,15.4
2019-05-06T06:07:29.427Z,15.7
2019-05-06T06:17:28.644Z,16.4
2019-05-06T06:27:27.864Z,17.2
2019-05-06T06:37:27.077Z,17.4
2019-05-06T06:47:26.302Z,17.4
2019-05-06T06:57:25.571Z,17.6
2019-05-06T07:07:39.503Z,17.5
2019-05-06T07:17:23.962Z,18.4
2019-05-06T07:27:23.176Z,19
2019-05-06T07:37:22.387Z,20.3
2019-05-06T07:47:23.763Z,22.4
2019-05-06T07:57:22.004Z,24.6
2019-05-06T08:07:22.048Z,25.7
2019-05-06T08:17:19.265Z,23.1
2019-05-06T08:27:18.482Z,20.3
2019-05-06T08:37:17.750Z,18.4
2019-05-06T08:47:16.920Z,17.6
2019-05-06T08:57:16.134Z,17.1
2019-05-06T09:07:15.350Z,17.1
2019-05-06T09:17:14.563Z,16.7
2019-05-06T09:27:13.829Z,16.4
2019-05-06T09:37:13.759Z,16.3
2019-05-06T09:47:12.758Z,17.1
2019-05-06T09:57:12.843Z,17.1
2019-05-06T10:07:11.866Z,16.9
2019-05-06T10:17:09.872Z,18.1
2019-05-06T10:27:09.084Z,18.6
2019-05-06T10:37:15.105Z,19.3
2019-05-06T10:47:07.513Z,19.3
2019-05-06T10:57:06.730Z,18.6
2019-05-06T11:07:05.948Z,18
2019-05-06T11:17:05.330Z,17.6
2019-05-06T11:27:04.423Z,16.9
2019-05-06T11:36:55.984Z,16.3
2019-05-06T11:46:55.206Z,15.8
2019-05-06T11:56:58.043Z,15.4
2019-05-06T12:07:09.149Z,14.7
2019-05-06T12:16:55.040Z,14.1
2019-05-06T12:26:52.268Z,14
2019-05-06T12:36:52.709Z,14.3
2019-05-06T12:46:52.874Z,14.6
2019-05-06T12:56:51.779Z,14.8
2019-05-06T13:06:49.302Z,14.9
2019-05-06T13:16:48.554Z,15.1
2019-05-06T13:26:47.921Z,15.1
2019-05-06T13:36:47.127Z,15.5
2019-05-06T13:46:46.299Z,15.9
2019-05-06T13:56:48.639Z,16.2
2019-05-06T14:06:44.727Z,16.1
2019-05-06T14:16:43.933Z,16.2
2019-05-06T14:26:44.656Z,16.4
2019-05-06T14:41:27.187Z,16.6
2019-05-06T14:51:25.014Z,16.8
2019-05-06T15:01:24.229Z,16.3
2019-05-06T15:11:23.441Z,15.8
2019-05-06T15:21:36.347Z,15.3
2019-05-06T15:31:22.875Z,14.6
2019-05-06T15:41:22.290Z,13.6
2019-05-06T15:51:22.237Z,13.8
2019-05-06T16:01:19.721Z,12.8
2019-05-06T16:11:19.027Z,12.3
2019-05-06T16:21:18.335Z,11.8
2019-05-06T16:31:17.628Z,11.8
2019-05-06T16:41:16.871Z,12.2
2019-05-06T16:51:16.117Z,12.2
2019-05-06T17:01:15.342Z,12.3
2019-05-06T17:11:26.793Z,12.3
2019-05-06T17:21:13.721Z,12.4
2019-05-06T17:31:13.265Z,12.3
2019-05-06T17:47:22.743Z,12.4
2019-05-06T17:57:22.081Z,12.4
2019-05-06T18:08:26.047Z,12.5
2019-05-06T18:18:28.831Z,12.6
2019-05-06T18:28:24.496Z,12.6
2019-05-06T18:38:23.726Z,12.7
2019-05-06T18:48:22.993Z,12.7
2019-05-06T19:06:11.466Z,12.5
2019-05-06T19:21:57.001Z,12.3
2019-05-06T19:31:56.220Z,12.3
2019-05-06T19:41:55.591Z,12.4
2019-05-06T19:51:54.656Z,12.4
2019-05-06T20:01:53.875Z,12.4
2019-05-06T20:12:59.336Z,12.5
2019-05-06T20:22:47.213Z,12.4
2019-05-06T20:32:46.428Z,12.3
2019-05-06T20:42:45.645Z,12.2
2019-05-06T20:52:45.065Z,12.1
2019-05-06T21:02:44.087Z,11.9
2019-05-06T21:21:20.680Z,11.7
2019-05-06T21:30:02.626Z,11.7
2019-05-06T21:40:02.653Z,11.7
2019-05-06T21:50:00.941Z,11.6
2019-05-06T22:00:02.483Z,11.4
2019-05-06T22:09:59.373Z,11.3
2019-05-06T22:19:58.642Z,11.2
2019-05-06T22:31:36.218Z,11
2019-05-06T22:41:35.441Z,10.9
2019-05-06T22:52:42.840Z,10.9
2019-05-06T23:08:43.671Z,10.9
2019-05-06T23:18:29.212Z,10.9
2019-05-06T23:28:28.435Z,11
2019-05-06T23:38:27.655Z,11
2019-05-06T23:48:26.864Z,10.9
